You are not logged in, Click here to log in
ICAO: PHNL Country: 美國夏威夷檀香山
Latitude: 21.3245 Longitude: -157.925
Total Arrivals: 13 Total Departures: 11
Latest Arrival: FS68 (NTAA-PHNL)Jason. Li Latest Departure: A7U24 (PHNL-KSFO)Jason. Li
Scenery:
METAR : PHNL 180053Z 07014G19KT 10SM FEW024 SCT045 33/20 A2999 RMK AO2 SLP154 T03280200

檀香山國際機場HNL